Sebewaing, Michigan
Current Conditions -  °F | °C
As of 6:15 AM on Saturday 20 Dec 2014 (Local Time) from KCFS Reporting Station
Clear Clear  
Wind Chill: 13°   Ceiling: Unl
Heat Index: 13°   Visibility: 10mi
Dew Point: 11°   Wind: 0mph
Humidity: 90%   Direction: NA
Pressure: 30.3"   Gusts: NA
Location:  43.73°N, 83.45°W
Report Text: KCFS 201115Z AUTO 00000KT 10SM CLR M10/M12 A3030 RMK AO2 T11041118
Loading
Personal Weather Stations






























Interactive Weather Map New forecast layout! Learn more

10-Day Weather Forecast

Advertisements
Track Severe Weather on mobile